Flight Track Log - Related Links

Times and Time Zones

All times are in EST time to prevent confusion due to time zone crossing. See the N111KC flight status page for this flight to view local times or setup timezone preferences in your user account.

Time Position Orientation Groundspeed Altitude Reporting Facility
EST Latitude Longitude Course Direction KTS MPH feet Rate Location/Type
Tue 10:04:40 AM 28.5333 -81.3500 270° West 128 147 800  Level Orlando TRACON
Tue 10:05:22 AM 28.5333 -81.3667 270° West 120 138 1,800 1,471 Climbing Orlando TRACON
Tue 10:06:22 AM 28.5333 -81.4167 270° West 110 127 3,300 1,400 Climbing Orlando TRACON
Tue 10:07:22 AM 28.5333 -81.4500 270° West 123 142 4,600 1,300 Climbing Orlando TRACON
Tue 10:08:22 AM 28.5667 -81.4500 360° North 172 198 5,900 1,200 Climbing Orlando TRACON
Tue 10:09:22 AM 28.6167 -81.4500 360° North 177 204 7,000 550 Climbing Orlando TRACON
Tue 10:10:22 AM 28.6833 -81.4500 360° North 232 267 7,000 150 Level Orlando TRACON
Tue 10:11:22 AM 28.7500 -81.4333 12° North 249 287 7,300 750 Climbing Orlando TRACON
Tue 10:12:22 AM 28.8000 -81.4333 360° North 203 234 8,500 1,190 Climbing Orlando TRACON
Tue 10:13:23 AM 28.8667 -81.4333 360° North 192 221 9,700 953 Climbing Orlando TRACON
Tue 10:14:09 AM 28.8972 -81.4364 355° North 196 226 10,200 1,019 Climbing Jacksonville Center
Tue 10:15:09 AM 28.9514 -81.4381 358° North 196 226 11,500 1,250 Climbing Jacksonville Center
Tue 10:16:09 AM 28.9994 -81.4517 346° North 190 219 12,700 1,200 Climbing Jacksonville Center
Tue 10:17:09 AM 29.0436 -81.4769 333° Northwest 177 204 13,900 1,050 Climbing Jacksonville Center
Tue 10:18:09 AM 29.0919 -81.5000 337° Northwest 177 204 14,800 950 Climbing Jacksonville Center
Tue 10:19:09 AM 29.1422 -81.5231 338° Northwest 182 209 15,800 1,000 Climbing Jacksonville Center
Tue 10:20:09 AM 29.1947 -81.5461 339° North 188 216 16,800 1,050 Climbing Jacksonville Center
Tue 10:21:09 AM 29.2450 -81.5717 336° Northwest 193 222 17,900 950 Climbing Jacksonville Center
Tue 10:22:09 AM 29.2933 -81.5950 337° Northwest 193 222 18,700 700 Climbing Jacksonville Center
Tue 10:23:09 AM 29.3436 -81.6206 336° Northwest 193 222 19,300 600 Climbing Jacksonville Center
Tue 10:24:09 AM 29.3961 -81.6436 339° North 193 222 19,900 694 Climbing Jacksonville Center
Tue 10:25:10 AM 29.4464 -81.6692 336° Northwest 198 228 20,700 450 Climbing Jacksonville Center
Tue 10:26:09 AM 29.4989 -81.6994 333° Northwest 198 228 20,800 50 Climbing Jacksonville Center
Tue 10:27:09 AM 29.5575 -81.7275 337° Northwest 209 241 20,800 100 Level Jacksonville Center
Tue 10:28:09 AM 29.6164 -81.7603 334° Northwest 220 253 21,000 50 Climbing Jacksonville Center
Tue 10:29:09 AM 29.6750 -81.7906 336° Northwest 220 253 20,900 -50 Descending Jacksonville Center
Tue 10:30:09 AM 29.7358 -81.8211 336° Northwest 220 253 20,900  Level Jacksonville Center
Tue 10:31:09 AM 29.7967 -81.8514 337° Northwest 225 259 20,900  Level Jacksonville Center
Tue 10:32:09 AM 29.8575 -81.8794 338° Northwest 230 265 20,900  Level Jacksonville Center
Tue 10:33:10 AM 29.9203 -81.9100 337° Northwest 235 270 20,900  Level Jacksonville Center
Tue 10:34:09 AM 29.9811 -81.9431 335° Northwest 240 276 20,900  Level Jacksonville Center
Tue 10:35:09 AM 30.0522 -81.9736 340° North 235 270 20,900  Level Jacksonville Center
Tue 10:36:09 AM 30.1153 -82.0064 336° Northwest 236 272 20,900  Level Jacksonville Center
Tue 10:37:09 AM 30.1781 -82.0394 336° Northwest 247 284 20,900 500 Level Jacksonville Center
Tue 10:38:09 AM 30.2347 -82.0656 338° Northwest 223 257 21,900 545 Climbing Jacksonville Center
Tue 10:39:10 AM 30.2933 -82.0964 336° Northwest 218 251 22,000  Climbing Jacksonville Center
Tue 10:40:09 AM 30.3539 -82.1269 336° Northwest 218 251 21,900  Descending Jacksonville Center
Tue 10:41:09 AM 30.4167 -82.1556 339° North 228 262 22,000 50 Climbing Jacksonville Center
Tue 10:42:09 AM 30.4797 -82.1886 336° Northwest 240 276 22,000  Level Jacksonville Center
Tue 10:43:09 AM 30.5444 -82.2219 336° Northwest 245 282 22,000  Level Jacksonville Center
Tue 10:44:10 AM 30.6072 -82.2578 334° Northwest 245 282 22,000  Level Jacksonville Center
Tue 10:45:09 AM 30.6722 -82.2889 338° Northwest 245 282 22,000  Level Jacksonville Center
Tue 10:46:09 AM 30.7350 -82.3247 334° Northwest 245 282 22,000  Level Jacksonville Center
Tue 10:47:09 AM 30.8000 -82.3556 338° Northwest 250 288 22,000 -99 Level Jacksonville Center
Tue 10:48:10 AM 30.8628 -82.3867 337° Northwest 250 288 21,800 -400 Descending Jacksonville Center
Tue 10:49:09 AM 30.9297 -82.4203 337° Northwest 250 288 21,200 -555 Descending Jacksonville Center
Tue 10:50:09 AM 30.9986 -82.4564 336° Northwest 256 295 20,700 -450 Descending Jacksonville Center
Tue 10:51:09 AM 31.0656 -82.4900 337° Northwest 256 295 20,300 -350 Descending Jacksonville Center
Tue 10:52:09 AM 31.1303 -82.5236 336° Northwest 256 295 20,000 -200 Descending Jacksonville Center
Tue 10:53:09 AM 31.1911 -82.5550 336° Northwest 251 289 19,900 -50 Descending Jacksonville Center
Tue 10:54:10 AM 31.2517 -82.5889 334° Northwest 246 283 19,900  Level Jacksonville Center
Tue 10:55:09 AM 31.3122 -82.6228 334° Northwest 239 275 19,900  Level Jacksonville Center
Tue 10:56:09 AM 31.3728 -82.6517 338° Northwest 239 275 19,900  Level Jacksonville Center
Tue 10:57:09 AM 31.4356 -82.6831 337° Northwest 239 275 19,900  Level Jacksonville Center
Tue 10:58:09 AM 31.4961 -82.7147 336° Northwest 239 275 19,900 50 Level Jacksonville Center
Tue 10:59:10 AM 31.5589 -82.7464 337° Northwest 239 275 20,000 50 Climbing Jacksonville Center
Tue 11:00:09 AM 31.6194 -82.7778 336° Northwest 239 275 20,000  Level Jacksonville Center
Tue 11:01:09 AM 31.6800 -82.8094 336° Northwest 239 275 20,000 -50 Level Jacksonville Center
Tue 11:02:09 AM 31.7406 -82.8389 338° Northwest 239 275 19,900 -50 Descending Jacksonville Center
Tue 11:03:09 AM 31.7992 -82.8706 335° Northwest 239 275 19,900 50 Level Jacksonville Center
Tue 11:04:09 AM 31.8597 -82.8975 339° North 239 275 20,000  Climbing Jacksonville Center
Tue 11:05:09 AM 31.9389 -82.8756 13° North 246 283 19,900 -37 Descending Jacksonville Center
Tue 11:06:51 AM 32.0664 -82.8550 North 281 323 19,900  Level Atlanta Center
Tue 11:07:51 AM 32.1356 -82.8639 354° North 265 305 19,900  Level Atlanta Center
Tue 11:08:51 AM 32.1881 -82.9000 330° Northwest 227 261 19,900  Level Atlanta Center
Tue 11:09:51 AM 32.2364 -82.9339 329° Northwest 210 242 19,900  Level Atlanta Center
Tue 11:10:51 AM 32.2889 -82.9700 330° Northwest 210 242 19,900  Level Atlanta Center
Tue 11:11:51 AM 32.3392 -83.0039 330° Northwest 210 242 19,900  Level Atlanta Center
Tue 11:12:51 AM 32.3958 -83.0353 335° Northwest 210 242 19,900  Level Atlanta Center
Tue 11:13:51 AM 32.4483 -83.0692 331° Northwest 210 242 19,900  Level Atlanta Center
Tue 11:14:51 AM 32.5008 -83.1056 330° Northwest 210 242 19,900 -400 Level Atlanta Center
Tue 11:15:51 AM 32.5594 -83.1392 334° Northwest 216 249 19,100 -950 Descending Atlanta Center
Tue 11:16:51 AM 32.6244 -83.1781 333° Northwest 231 266 18,000 -1,000 Descending Atlanta Center
Tue 11:17:51 AM 32.6853 -83.2169 332° Northwest 243 280 17,100 -850 Descending Atlanta Center
Tue 11:18:51 AM 32.7419 -83.2583 328° Northwest 243 280 16,300 -1,000 Descending Atlanta Center
Tue 11:19:51 AM 32.7942 -83.2900 333° Northwest 237 273 15,100 -1,500 Descending Atlanta Center
Tue 11:20:51 AM 32.8486 -83.3192 336° Northwest 217 250 13,300 -1,800 Descending Atlanta Center
Tue 11:21:51 AM 32.9053 -83.3583 330° Northwest 217 250 11,500 -1,750 Descending Atlanta Center
Tue 11:22:51 AM 32.9617 -83.3925 333° Northwest 223 257 9,800 -1,500 Descending Atlanta Center
Tue 11:23:51 AM 33.0161 -83.4294 330° Northwest 223 257 8,500 -1,300 Descending Atlanta Center
Tue 11:24:51 AM 33.0769 -83.4711 330° Northwest 223 257 7,200 -1,100 Descending Atlanta Center
Tue 11:25:51 AM 33.1253 -83.5081 327° Northwest 216 249 6,300 -800 Descending Atlanta Center
Tue 11:26:51 AM 33.1669 -83.5375 329° Northwest 210 242 5,600 -750 Descending Atlanta Center
Tue 11:27:51 AM 33.2131 -83.5669 332° Northwest 199 229 4,800 -750 Descending Atlanta Center
Tue 11:28:51 AM 33.2611 -83.5992 331° Northwest 191 220 4,100 -700 Descending Atlanta Center

Login

Don't have an account? Register now (free) for customized features, flight alerts, and more!